< < Back
Terminal Aerodrome Forecast


Current Version              Previous Versions:   1  2  3  4  5  6  7  8  9  

Terminal Aerodrome Forecast

118
FTUS44 KBMX 271139
TAFTCL
TAF
KTCL 271139Z 2712/2812 14006KT 3SM BR OVC005
     FM271330 15006KT 6SM HZ BKN007 OVC015
     FM271430 16007KT P6SM BKN025
     FM271700 18006KT P6SM -SHRA VCTS FEW025 BKN035CB
      TEMPO 2720/2724 2SM TSRA SCT015 BKN025CB
     FM280100 VRB03KT P6SM BKN120=



Latest METAR

208
SAUS70 KWBC 272100 RRF
MTRTCL
METAR KTCL 272053Z 11005KT 9SM CLR 28/21 A3009 RMK AO2 LTG DSNT S-W
TSB23E38 SLP188 T02830206 56023


USA.gov is the U.S. government's official web portal to all federal, state and local government web resources and services.